createdAt,value
2022-10-07T00:01:06.657Z,4.30
2022-10-07T00:03:34.937Z,4.90
2022-10-07T00:06:16.763Z,4.72
2022-10-07T00:08:46.874Z,4.60
2022-10-07T00:11:23.933Z,4.25
2022-10-07T00:14:00.355Z,4.30
2022-10-07T00:16:30.716Z,4.40
2022-10-07T00:19:01.020Z,4.35
2022-10-07T00:21:31.366Z,4.38
2022-10-07T00:23:59.958Z,4.72
2022-10-07T00:26:31.500Z,4.38
2022-10-07T00:28:59.106Z,4.63
2022-10-07T00:31:31.207Z,4.50
2022-10-07T00:33:59.505Z,4.35
2022-10-07T00:36:29.667Z,4.55
2022-10-07T00:39:05.626Z,3.90
2022-10-07T00:41:52.198Z,4.22
2022-10-07T00:44:31.814Z,4.53
2022-10-07T00:47:23.292Z,3.83
2022-10-07T00:50:17.321Z,3.78
2022-10-07T00:52:52.048Z,4.40
2022-10-07T00:55:23.666Z,4.10
2022-10-07T00:57:54.849Z,3.78
2022-10-07T01:00:24.270Z,4.10
2022-10-07T01:02:54.376Z,4.15
2022-10-07T01:05:21.984Z,4.22
2022-10-07T01:07:50.990Z,4.13
2022-10-07T01:10:22.979Z,3.92
2022-10-07T01:13:00.601Z,4.10
2022-10-07T01:15:36.748Z,3.97
2022-10-07T01:18:09.792Z,4.00
2022-10-07T01:20:52.144Z,4.32
2022-10-07T01:23:39.036Z,3.65
2022-10-07T01:26:31.519Z,4.22
2022-10-07T01:29:01.718Z,3.90
2022-10-07T01:31:38.242Z,4.00
2022-10-07T01:34:07.762Z,3.88
2022-10-07T01:36:37.581Z,3.50
2022-10-07T01:39:10.679Z,3.90
2022-10-07T01:41:41.601Z,3.40
2022-10-07T01:44:11.991Z,3.47
2022-10-07T01:46:39.523Z,4.45
2022-10-07T01:49:09.584Z,3.47
2022-10-07T01:51:44.132Z,3.90
2022-10-07T01:54:41.933Z,3.40
2022-10-07T01:57:29.750Z,4.00
2022-10-07T02:00:12.071Z,3.70
2022-10-07T02:02:51.961Z,3.58
2022-10-07T02:05:40.258Z,3.95
2022-10-07T02:08:33.847Z,3.60
2022-10-07T02:11:13.653Z,3.63
2022-10-07T02:14:01.385Z,4.00
2022-10-07T02:16:47.883Z,3.47
2022-10-07T02:19:28.045Z,3.65
2022-10-07T02:21:57.624Z,3.17
2022-10-07T02:24:30.724Z,3.53
2022-10-07T02:27:01.862Z,4.25
2022-10-07T02:29:35.873Z,3.30
2022-10-07T02:32:08.772Z,3.50
2022-10-07T02:34:37.431Z,3.60
2022-10-07T02:37:26.503Z,3.60
2022-10-07T02:39:57.050Z,3.20
2022-10-07T02:42:33.673Z,3.55
2022-10-07T02:45:07.995Z,3.45
2022-10-07T02:47:53.454Z,3.53
2022-10-07T02:50:26.249Z,3.60
2022-10-07T02:53:01.162Z,3.30
2022-10-07T02:55:31.270Z,3.37
2022-10-07T02:58:02.332Z,3.35
2022-10-07T03:00:34.838Z,3.67
2022-10-07T03:03:05.079Z,3.40
2022-10-07T03:05:45.093Z,3.67
2022-10-07T03:08:16.544Z,3.20
2022-10-07T03:10:46.991Z,3.40
2022-10-07T03:13:16.402Z,3.40
2022-10-07T03:15:48.749Z,3.15
2022-10-07T03:18:29.185Z,3.10
2022-10-07T03:21:29.063Z,3.20
2022-10-07T03:24:05.891Z,3.13
2022-10-07T03:30:29.607Z,3.22
2022-10-07T03:32:57.976Z,3.25
2022-10-07T03:35:25.521Z,3.00
2022-10-07T03:37:55.952Z,3.05
2022-10-07T03:40:25.918Z,2.80
2022-10-07T03:42:55.106Z,3.20
2022-10-07T03:45:24.261Z,3.13
2022-10-07T03:47:51.703Z,3.22
2022-10-07T03:50:21.896Z,3.13
2022-10-07T03:52:55.134Z,3.78
2022-10-07T03:56:04.130Z,3.10
2022-10-07T03:58:39.368Z,3.42
2022-10-07T04:01:12.165Z,3.50
2022-10-07T04:03:46.243Z,3.60
2022-10-07T04:06:16.531Z,3.28
2022-10-07T04:08:44.936Z,3.15
2022-10-07T04:11:13.550Z,3.17
2022-10-07T04:13:45.923Z,3.17
2022-10-07T04:16:13.994Z,3.40
2022-10-07T04:18:42.722Z,3.10
2022-10-07T04:21:11.226Z,3.15
2022-10-07T04:23:41.209Z,3.10
2022-10-07T04:26:10.905Z,3.53
2022-10-07T04:28:42.722Z,3.13
2022-10-07T04:31:17.898Z,3.50
2022-10-07T04:33:47.987Z,3.10
2022-10-07T04:36:21.178Z,2.83
2022-10-07T04:38:54.132Z,3.30
2022-10-07T04:41:26.352Z,3.20
2022-10-07T04:43:57.688Z,2.83
2022-10-07T04:46:28.576Z,2.90
2022-10-07T04:49:05.212Z,3.10
2022-10-07T04:51:33.032Z,3.22
2022-10-07T04:54:03.300Z,3.10
2022-10-07T04:56:40.177Z,3.10
2022-10-07T04:59:11.995Z,3.03
2022-10-07T05:01:40.272Z,2.75
2022-10-07T05:04:10.638Z,2.50
2022-10-07T05:06:38.271Z,2.70
2022-10-07T05:09:06.252Z,2.85
2022-10-07T05:11:37.917Z,3.22
2022-10-07T05:14:10.700Z,2.90
2022-10-07T05:16:38.409Z,3.00
2022-10-07T05:19:06.307Z,3.05
2022-10-07T05:21:33.865Z,2.92
2022-10-07T05:24:02.525Z,2.45
2022-10-07T05:26:35.372Z,2.80
2022-10-07T05:29:04.546Z,3.00
2022-10-07T05:31:38.367Z,2.75
2022-10-07T05:34:08.107Z,3.00
2022-10-07T05:36:36.233Z,2.75
2022-10-07T05:39:05.902Z,2.78
2022-10-07T05:41:55.730Z,2.65
2022-10-07T05:44:27.723Z,2.93
2022-10-07T05:46:58.350Z,2.78
2022-10-07T05:49:27.847Z,2.78
2022-10-07T05:51:56.136Z,2.85
2022-10-07T05:54:24.596Z,2.85
2022-10-07T05:56:54.033Z,2.70
2022-10-07T05:59:22.343Z,2.47
2022-10-07T06:01:50.310Z,2.70
2022-10-07T06:04:21.535Z,2.78
2022-10-07T06:06:50.818Z,2.45
2022-10-07T06:09:36.952Z,2.60
2022-10-07T06:12:29.391Z,2.83
2022-10-07T06:14:59.408Z,2.78
2022-10-07T06:17:29.200Z,2.97
2022-10-07T06:19:59.264Z,2.55
2022-10-07T06:22:27.410Z,2.65
2022-10-07T06:24:58.832Z,2.97
2022-10-07T06:27:26.666Z,2.40
2022-10-07T06:29:55.310Z,3.00
2022-10-07T06:32:22.870Z,3.00
2022-10-07T06:34:50.618Z,2.60
2022-10-07T06:37:20.194Z,2.78
2022-10-07T06:39:47.510Z,2.83
2022-10-07T06:42:15.137Z,2.60
2022-10-07T06:45:07.615Z,2.97
2022-10-07T06:47:35.909Z,2.90
2022-10-07T06:50:06.025Z,2.67
2022-10-07T06:52:37.932Z,2.65
2022-10-07T06:57:56.074Z,2.65
2022-10-07T07:00:24.323Z,2.83
2022-10-07T07:02:53.930Z,2.60
2022-10-07T07:05:22.926Z,2.80
2022-10-07T07:07:53.256Z,2.80
2022-10-07T07:10:20.810Z,2.42
2022-10-07T07:12:54.045Z,3.13
2022-10-07T07:15:22.155Z,2.60
2022-10-07T07:17:49.856Z,2.40
2022-10-07T07:20:17.355Z,2.78
2022-10-07T07:22:44.866Z,2.75
2022-10-07T07:25:12.411Z,3.17
2022-10-07T07:27:40.368Z,2.92
2022-10-07T07:30:10.584Z,3.15
2022-10-07T07:32:38.193Z,2.90
2022-10-07T07:35:07.795Z,3.63
2022-10-07T07:37:36.144Z,2.90
2022-10-07T07:40:04.070Z,3.13
2022-10-07T07:42:33.348Z,3.28
2022-10-07T07:45:00.987Z,3.28
2022-10-07T07:47:28.646Z,3.05
2022-10-07T07:49:56.798Z,3.30
2022-10-07T07:52:31.120Z,2.78
2022-10-07T07:55:02.638Z,3.08
2022-10-07T07:57:31.108Z,3.22
2022-10-07T08:00:02.417Z,3.10
2022-10-07T08:02:30.260Z,3.35
2022-10-07T08:04:58.143Z,3.33
2022-10-07T08:07:26.929Z,3.60
2022-10-07T08:09:55.279Z,3.40
2022-10-07T08:12:24.608Z,3.20
2022-10-07T08:14:54.149Z,3.20
2022-10-07T08:17:22.254Z,2.85
2022-10-07T08:19:51.187Z,2.67
2022-10-07T08:22:19.423Z,3.17
2022-10-07T08:24:50.548Z,3.10
2022-10-07T08:27:20.459Z,3.20
2022-10-07T08:29:47.931Z,3.10
2022-10-07T08:32:15.378Z,2.97
2022-10-07T08:34:42.761Z,3.58
2022-10-07T08:37:11.177Z,2.75
2022-10-07T08:39:38.669Z,3.03
2022-10-07T08:42:32.627Z,3.28
2022-10-07T08:45:00.822Z,3.23
2022-10-07T08:47:28.884Z,3.17
2022-10-07T08:50:25.751Z,3.20
2022-10-07T08:53:04.237Z,2.80
2022-10-07T08:55:41.022Z,3.33
2022-10-07T08:58:51.904Z,2.70
2022-10-07T09:01:34.439Z,3.38
2022-10-07T09:04:15.652Z,3.33
2022-10-07T09:06:50.316Z,2.80
2022-10-07T09:09:28.822Z,3.22
2022-10-07T09:12:00.576Z,3.25
2022-10-07T09:14:40.223Z,3.00
2022-10-07T09:17:18.699Z,3.08
2022-10-07T09:19:55.732Z,2.78
2022-10-07T09:22:53.408Z,2.67
2022-10-07T09:25:27.981Z,2.92
2022-10-07T09:27:55.441Z,2.67
2022-10-07T09:30:25.115Z,2.40
2022-10-07T09:32:55.168Z,2.58
2022-10-07T09:35:25.686Z,2.90
2022-10-07T09:38:01.071Z,2.80
2022-10-07T09:40:35.909Z,2.70
2022-10-07T09:43:14.119Z,2.67
2022-10-07T09:45:47.071Z,2.88
2022-10-07T09:48:21.940Z,2.90
2022-10-07T09:50:49.683Z,2.72
2022-10-07T09:53:21.691Z,2.92
2022-10-07T09:55:52.653Z,2.80
2022-10-07T09:58:28.889Z,2.63
2022-10-07T10:01:01.322Z,2.67
2022-10-07T10:03:31.192Z,2.55
2022-10-07T10:06:07.307Z,2.67
2022-10-07T10:08:44.774Z,2.50
2022-10-07T10:11:18.403Z,2.50
2022-10-07T10:13:49.513Z,2.30
2022-10-07T10:16:26.265Z,2.75
2022-10-07T10:18:59.107Z,2.92
2022-10-07T10:21:35.813Z,2.70
2022-10-07T10:24:06.606Z,3.83
2022-10-07T10:26:47.915Z,4.50
2022-10-07T10:29:40.400Z,3.75
2022-10-07T10:32:26.046Z,3.97
2022-10-07T10:35:02.941Z,4.30
2022-10-07T10:37:49.222Z,4.18
2022-10-07T10:40:23.304Z,5.28
2022-10-07T10:43:07.090Z,5.05
2022-10-07T10:45:44.171Z,5.00
2022-10-07T10:49:10.801Z,5.20
2022-10-07T10:52:04.203Z,4.90
2022-10-07T10:54:50.490Z,5.00
2022-10-07T10:57:36.417Z,4.22
2022-10-07T11:00:23.483Z,3.85
2022-10-07T11:02:59.716Z,4.60
2022-10-07T11:05:40.193Z,4.78
2022-10-07T11:08:18.505Z,4.32
2022-10-07T11:10:52.815Z,4.20
2022-10-07T11:13:44.080Z,4.22
2022-10-07T11:16:38.490Z,3.75
2022-10-07T11:19:19.056Z,3.65
2022-10-07T11:21:49.451Z,3.63
2022-10-07T11:24:41.291Z,3.80
2022-10-07T11:27:31.056Z,3.58
2022-10-07T11:30:08.462Z,3.70
2022-10-07T11:33:01.196Z,3.55
2022-10-07T11:35:47.613Z,3.67
2022-10-07T11:38:21.960Z,3.80
2022-10-07T11:41:19.957Z,3.33
2022-10-07T11:43:57.054Z,3.63
2022-10-07T11:46:29.078Z,3.00
2022-10-07T11:49:19.661Z,3.15
2022-10-07T11:52:02.540Z,3.70
2022-10-07T11:54:38.903Z,3.60
2022-10-07T11:57:06.817Z,3.95
2022-10-07T11:59:42.466Z,3.42
2022-10-07T12:02:32.710Z,3.50
2022-10-07T12:05:01.884Z,3.25
2022-10-07T12:07:35.177Z,3.72
2022-10-07T12:10:03.382Z,3.50
2022-10-07T12:12:43.018Z,3.45
2022-10-07T12:15:45.162Z,3.58
2022-10-07T12:18:17.309Z,3.22
2022-10-07T12:20:51.074Z,3.63
2022-10-07T12:23:25.985Z,3.10
2022-10-07T12:26:31.171Z,2.83
2022-10-07T12:29:05.753Z,3.63
2022-10-07T12:31:33.092Z,3.65
2022-10-07T12:34:08.717Z,4.13
2022-10-07T12:36:41.137Z,3.42
2022-10-07T12:39:09.786Z,3.67
2022-10-07T12:41:40.423Z,3.55
2022-10-07T12:44:48.933Z,3.92
2022-10-07T12:47:25.444Z,3.60
2022-10-07T12:49:59.035Z,3.30
2022-10-07T12:52:54.785Z,3.38
2022-10-07T12:55:39.607Z,3.15
2022-10-07T12:58:53.947Z,3.40
2022-10-07T13:01:47.212Z,3.33
2022-10-07T13:04:28.286Z,3.35
2022-10-07T13:06:58.740Z,3.53
2022-10-07T13:09:54.593Z,3.80
2022-10-07T13:12:26.144Z,3.28
2022-10-07T13:14:56.608Z,3.78
2022-10-07T13:17:51.387Z,3.08
2022-10-07T13:20:37.438Z,3.05
2022-10-07T13:23:12.195Z,3.45
2022-10-07T13:25:45.635Z,3.65
2022-10-07T13:30:44.206Z,3.33
2022-10-07T13:33:25.005Z,3.40
2022-10-07T13:36:06.193Z,3.63
2022-10-07T13:38:34.865Z,3.30
2022-10-07T13:41:22.997Z,3.53
2022-10-07T13:43:54.398Z,3.47
2022-10-07T13:46:30.409Z,3.42
2022-10-07T13:49:01.369Z,3.67
2022-10-07T13:51:31.429Z,3.13
2022-10-07T13:54:01.836Z,3.35
2022-10-07T13:56:40.480Z,2.95
2022-10-07T13:59:18.370Z,3.58
2022-10-07T14:01:53.133Z,3.58
2022-10-07T14:04:28.628Z,3.60
2022-10-07T14:07:21.406Z,3.28
2022-10-07T14:10:08.771Z,2.87
2022-10-07T14:12:47.305Z,3.47
2022-10-07T14:15:15.933Z,3.70
2022-10-07T14:17:47.576Z,3.38
2022-10-07T14:20:30.621Z,3.10
2022-10-07T14:23:05.971Z,3.00
2022-10-07T14:25:54.149Z,3.22
2022-10-07T14:28:24.505Z,2.92
2022-10-07T14:31:36.515Z,2.85
2022-10-07T14:34:37.180Z,3.00
2022-10-07T14:37:32.146Z,3.00
2022-10-07T14:39:59.618Z,2.80
2022-10-07T14:42:36.217Z,2.78
2022-10-07T14:45:08.356Z,3.00
2022-10-07T14:47:39.213Z,3.10
2022-10-07T14:50:07.484Z,3.80
2022-10-07T14:52:44.936Z,3.60
2022-10-07T14:55:20.907Z,3.83
2022-10-07T14:57:48.598Z,3.92
2022-10-07T15:00:25.503Z,4.00
2022-10-07T15:02:54.633Z,3.92
2022-10-07T15:05:23.493Z,4.20
2022-10-07T15:07:51.495Z,3.92
2022-10-07T15:10:23.225Z,3.80
2022-10-07T15:12:51.444Z,4.18
2022-10-07T15:15:19.486Z,3.58
2022-10-07T15:17:48.458Z,4.30
2022-10-07T15:20:16.892Z,4.20
2022-10-07T15:22:45.846Z,4.00
2022-10-07T15:25:15.416Z,4.10
2022-10-07T15:27:43.287Z,4.25
2022-10-07T15:30:11.945Z,3.80
2022-10-07T15:32:40.694Z,3.53
2022-10-07T15:35:10.760Z,3.80
2022-10-07T15:37:39.427Z,3.85
2022-10-07T15:40:07.887Z,4.07
2022-10-07T15:42:35.720Z,4.60
2022-10-07T15:45:03.895Z,4.75
2022-10-07T15:47:34.499Z,4.32
2022-10-07T15:50:02.031Z,4.40
2022-10-07T15:52:30.448Z,4.28
2022-10-07T15:54:57.930Z,3.75
2022-10-07T15:57:25.369Z,5.00
2022-10-07T15:59:54.739Z,5.03
2022-10-07T16:02:22.450Z,5.10
2022-10-07T16:04:50.182Z,4.55
2022-10-07T16:07:17.627Z,5.05
2022-10-07T16:09:46.122Z,5.35
2022-10-07T16:12:13.614Z,4.80
2022-10-07T16:14:41.068Z,4.78
2022-10-07T16:17:09.371Z,4.75
2022-10-07T16:19:36.710Z,4.47
2022-10-07T16:22:04.290Z,4.32
2022-10-07T16:24:35.472Z,4.35
2022-10-07T16:27:02.961Z,4.97
2022-10-07T16:29:52.048Z,5.53
2022-10-07T16:32:19.466Z,5.53
2022-10-07T16:34:47.038Z,4.88
2022-10-07T16:37:15.890Z,5.07
2022-10-07T16:39:45.484Z,4.45
2022-10-07T16:42:13.188Z,4.72
2022-10-07T16:44:41.824Z,4.30
2022-10-07T16:47:09.152Z,4.32
2022-10-07T16:49:36.972Z,4.63
2022-10-07T16:52:06.865Z,4.28
2022-10-07T16:54:37.439Z,4.13
2022-10-07T16:57:04.916Z,4.65
2022-10-07T16:59:32.485Z,3.63
2022-10-07T17:02:05.001Z,4.43
2022-10-07T17:04:32.452Z,4.00
2022-10-07T17:07:06.001Z,5.15
2022-10-07T17:12:06.868Z,3.55
2022-10-07T17:14:38.675Z,3.55
2022-10-07T17:17:07.857Z,4.10
2022-10-07T17:19:37.866Z,3.80
2022-10-07T17:22:05.492Z,4.00
2022-10-07T17:24:33.099Z,3.80
2022-10-07T17:27:00.614Z,4.07
2022-10-07T17:29:29.632Z,3.47
2022-10-07T17:31:59.483Z,3.85
2022-10-07T17:34:26.913Z,4.03
2022-10-07T17:36:54.530Z,3.53
2022-10-07T17:39:21.886Z,3.72
2022-10-07T17:41:49.458Z,3.58
2022-10-07T17:44:21.488Z,3.17
2022-10-07T17:46:49.310Z,3.45
2022-10-07T17:49:16.698Z,3.75
2022-10-07T17:51:44.242Z,3.30
2022-10-07T17:54:13.716Z,3.75
2022-10-07T17:56:47.608Z,3.90
2022-10-07T17:59:16.719Z,3.45
2022-10-07T18:01:45.051Z,3.50
2022-10-07T18:04:18.853Z,3.50
2022-10-07T18:06:48.875Z,3.42
2022-10-07T18:09:18.807Z,3.80
2022-10-07T18:12:05.424Z,3.72
2022-10-07T18:14:54.144Z,3.50
2022-10-07T18:17:23.345Z,3.58
2022-10-07T18:20:04.095Z,3.67
2022-10-07T18:22:35.764Z,3.40
2022-10-07T18:25:04.682Z,3.33
2022-10-07T18:27:32.130Z,4.22
2022-10-07T18:30:02.283Z,4.38
2022-10-07T18:32:29.746Z,4.20
2022-10-07T18:34:59.249Z,4.05
2022-10-07T18:37:29.167Z,4.18
2022-10-07T18:39:56.504Z,4.35
2022-10-07T18:42:24.011Z,4.18
2022-10-07T18:44:52.392Z,4.35
2022-10-07T18:47:20.206Z,4.60
2022-10-07T18:49:51.859Z,4.20
2022-10-07T18:52:19.600Z,4.68
2022-10-07T18:54:49.085Z,4.15
2022-10-07T18:57:22.143Z,4.55
2022-10-07T18:59:50.720Z,4.22
2022-10-07T19:02:21.535Z,4.70
2022-10-07T19:04:48.842Z,4.60
2022-10-07T19:07:16.484Z,4.40
2022-10-07T19:09:43.726Z,4.35
2022-10-07T19:12:31.248Z,4.45
2022-10-07T19:14:59.887Z,4.65
2022-10-07T19:17:27.256Z,4.40
2022-10-07T19:19:54.671Z,4.53
2022-10-07T19:22:22.213Z,4.35
2022-10-07T19:25:08.195Z,4.18
2022-10-07T19:27:37.932Z,4.75
2022-10-07T19:30:06.359Z,4.57
2022-10-07T19:32:33.891Z,4.72
2022-10-07T19:35:01.335Z,4.45
2022-10-07T19:37:28.716Z,5.07
2022-10-07T19:39:56.054Z,4.65
2022-10-07T19:42:24.314Z,4.82
2022-10-07T19:45:21.765Z,4.85
2022-10-07T19:48:28.998Z,4.85
2022-10-07T19:51:12.137Z,4.28
2022-10-07T19:53:46.691Z,4.80
2022-10-07T19:56:20.257Z,5.07
2022-10-07T19:58:52.270Z,4.75
2022-10-07T20:01:22.820Z,4.85
2022-10-07T20:03:57.200Z,4.80
2022-10-07T20:06:25.615Z,4.47
2022-10-07T20:08:54.006Z,4.90
2022-10-07T20:11:24.248Z,4.90
2022-10-07T20:13:53.628Z,5.13
2022-10-07T20:16:26.956Z,5.10
2022-10-07T20:19:02.040Z,5.00
2022-10-07T20:21:31.666Z,5.38
2022-10-07T20:24:01.613Z,5.35
2022-10-07T20:26:31.546Z,5.53
2022-10-07T20:29:00.869Z,5.65
2022-10-07T20:31:34.035Z,5.28
2022-10-07T20:34:02.809Z,5.32
2022-10-07T20:36:38.522Z,5.05
2022-10-07T20:39:34.685Z,5.03
2022-10-07T20:42:25.742Z,5.75
2022-10-07T20:44:53.564Z,5.82
2022-10-07T20:47:28.093Z,5.18
2022-10-07T20:49:57.936Z,5.63
2022-10-07T20:52:27.813Z,5.47
2022-10-07T20:54:55.338Z,6.03
2022-10-07T20:57:38.033Z,5.80
2022-10-07T21:00:16.113Z,5.67
2022-10-07T21:02:44.576Z,5.97
2022-10-07T21:05:12.512Z,5.50
2022-10-07T21:07:42.770Z,6.30
2022-10-07T21:10:10.166Z,5.50
2022-10-07T21:12:40.516Z,6.13
2022-10-07T21:15:08.851Z,5.45
2022-10-07T21:17:44.384Z,5.25
2022-10-07T21:20:11.878Z,6.28
2022-10-07T21:22:39.197Z,5.95
2022-10-07T21:25:07.334Z,5.90
2022-10-07T21:27:34.819Z,5.47
2022-10-07T21:30:05.301Z,5.85
2022-10-07T21:32:32.595Z,5.78
2022-10-07T21:35:00.477Z,5.88
2022-10-07T21:37:29.651Z,6.32
2022-10-07T21:40:02.638Z,6.80
2022-10-07T21:42:29.962Z,5.70
2022-10-07T21:44:57.966Z,6.00
2022-10-07T21:47:27.697Z,6.03
2022-10-07T21:49:57.216Z,6.40
2022-10-07T21:52:24.788Z,6.60
2022-10-07T21:54:52.544Z,6.20
2022-10-07T21:57:20.248Z,6.88
2022-10-07T21:59:51.137Z,7.10
2022-10-07T22:02:18.663Z,7.05
2022-10-07T22:04:48.796Z,6.40
2022-10-07T22:07:34.546Z,6.75
2022-10-07T22:10:01.926Z,6.85
2022-10-07T22:12:29.496Z,6.47
2022-10-07T22:14:56.810Z,6.93
2022-10-07T22:17:26.730Z,6.88
2022-10-07T22:19:54.267Z,6.78
2022-10-07T22:22:21.589Z,6.97
2022-10-07T22:24:51.230Z,6.75
2022-10-07T22:27:22.167Z,6.93
2022-10-07T22:29:49.543Z,6.60
2022-10-07T22:32:17.058Z,7.10
2022-10-07T22:35:03.241Z,6.38
2022-10-07T22:37:30.627Z,6.93
2022-10-07T22:39:58.247Z,7.32
2022-10-07T22:42:25.590Z,6.47
2022-10-07T22:44:53.050Z,7.15
2022-10-07T22:47:20.696Z,7.00
2022-10-07T22:49:48.581Z,6.72
2022-10-07T22:52:18.639Z,7.40
2022-10-07T22:54:49.481Z,7.22
2022-10-07T22:57:19.177Z,7.30
2022-10-07T22:59:49.174Z,6.93
2022-10-07T23:02:16.634Z,7.30
2022-10-07T23:04:46.724Z,6.97
2022-10-07T23:07:14.624Z,7.07
2022-10-07T23:09:42.120Z,7.30
2022-10-07T23:12:10.015Z,7.28
2022-10-07T23:14:37.657Z,7.55
2022-10-07T23:17:05.366Z,7.05
2022-10-07T23:19:32.919Z,7.15
2022-10-07T23:22:00.306Z,6.82
2022-10-07T23:24:28.754Z,6.93
2022-10-07T23:26:56.111Z,7.05
2022-10-07T23:29:26.656Z,6.65
2022-10-07T23:31:54.174Z,6.45
2022-10-07T23:34:21.487Z,7.22
2022-10-07T23:36:49.001Z,7.32
2022-10-07T23:39:16.342Z,7.05
2022-10-07T23:41:43.689Z,7.47
2022-10-07T23:44:11.239Z,6.53
2022-10-07T23:46:39.721Z,6.68
2022-10-07T23:49:07.255Z,6.38
2022-10-07T23:51:35.841Z,6.55
2022-10-07T23:54:04.129Z,7.20
2022-10-07T23:56:32.646Z,7.20
2022-10-07T23:59:01.818Z,5.95
